sensor_id;sensor_type;location;lat;lon;timestamp;pressure;altitude;pressure_sealevel;temperature;humidity
54022;BME280;39936;51.058;17.220;2023-05-14T00:02:50;102203.27;;;6.54;92.80
54022;BME280;39936;51.058;17.220;2023-05-14T00:07:03;102203.34;;;6.44;96.06
54022;BME280;39936;51.058;17.220;2023-05-14T00:10:40;102169.01;;;6.21;96.87
54022;BME280;39936;51.058;17.220;2023-05-14T00:15:01;102170.34;;;6.34;95.55
54022;BME280;39936;51.058;17.220;2023-05-14T00:18:35;102192.73;;;6.69;93.10
54022;BME280;39936;51.058;17.220;2023-05-14T00:22:05;102187.59;;;6.87;91.57
54022;BME280;39936;51.058;17.220;2023-05-14T00:26:17;102171.45;;;6.95;90.54
54022;BME280;39936;51.058;17.220;2023-05-14T00:29:44;102142.59;;;6.93;89.85
54022;BME280;39936;51.058;17.220;2023-05-14T00:33:17;102173.23;;;7.17;89.65
54022;BME280;39936;51.058;17.220;2023-05-14T00:36:56;102178.80;;;7.29;89.22
54022;BME280;39936;51.058;17.220;2023-05-14T00:40:53;102153.34;;;7.25;88.75
54022;BME280;39936;51.058;17.220;2023-05-14T00:44:37;102177.66;;;7.50;88.01
54022;BME280;39936;51.058;17.220;2023-05-14T00:47:55;102183.23;;;7.67;87.47
54022;BME280;39936;51.058;17.220;2023-05-14T00:51:24;102175.59;;;7.76;87.13
54022;BME280;39936;51.058;17.220;2023-05-14T00:55:32;102177.55;;;7.81;86.99
54022;BME280;39936;51.058;17.220;2023-05-14T01:03:30;102181.91;;;7.79;87.35
54022;BME280;39936;51.058;17.220;2023-05-14T01:11:02;102168.51;;;7.80;89.92
54022;BME280;39936;51.058;17.220;2023-05-14T01:18:18;102167.79;;;7.77;89.18
54022;BME280;39936;51.058;17.220;2023-05-14T01:21:54;102130.85;;;7.58;89.23
54022;BME280;39936;51.058;17.220;2023-05-14T01:25:18;102154.44;;;7.78;89.34
54022;BME280;39936;51.058;17.220;2023-05-14T01:32:25;102158.20;;;7.82;90.01
54022;BME280;39936;51.058;17.220;2023-05-14T01:36:12;102123.38;;;7.57;90.64
54022;BME280;39936;51.058;17.220;2023-05-14T01:39:49;102158.26;;;7.72;90.95
54022;BME280;39936;51.058;17.220;2023-05-14T01:43:25;102162.31;;;7.68;90.60
54022;BME280;39936;51.058;17.220;2023-05-14T01:47:25;102161.40;;;7.71;89.79
54022;BME280;39936;51.058;17.220;2023-05-14T01:50:56;102161.45;;;7.78;89.03
54022;BME280;39936;51.058;17.220;2023-05-14T01:54:24;102156.99;;;7.78;88.70
54022;BME280;39936;51.058;17.220;2023-05-14T01:58:14;102138.02;;;7.63;88.32
54022;BME280;39936;51.058;17.220;2023-05-14T02:09:22;102154.13;;;7.29;90.66
54022;BME280;39936;51.058;17.220;2023-05-14T02:12:47;102155.18;;;7.20;92.11
54022;BME280;39936;51.058;17.220;2023-05-14T02:16:25;102153.84;;;7.16;91.23
54022;BME280;39936;51.058;17.220;2023-05-14T02:19:58;102149.63;;;7.18;90.58
54022;BME280;39936;51.058;17.220;2023-05-14T02:23:12;102145.82;;;7.09;90.89
54022;BME280;39936;51.058;17.220;2023-05-14T02:27:18;102146.66;;;6.87;91.36
54022;BME280;39936;51.058;17.220;2023-05-14T02:30:58;102149.20;;;6.64;93.68
54022;BME280;39936;51.058;17.220;2023-05-14T02:34:31;102149.36;;;6.58;94.30
54022;BME280;39936;51.058;17.220;2023-05-14T02:38:16;102119.33;;;6.43;94.17
54022;BME280;39936;51.058;17.220;2023-05-14T02:42:18;102146.43;;;6.67;95.13
54022;BME280;39936;51.058;17.220;2023-05-14T02:45:32;102117.70;;;6.42;95.30
54022;BME280;39936;51.058;17.220;2023-05-14T02:49:29;102143.56;;;6.63;95.89
54022;BME280;39936;51.058;17.220;2023-05-14T02:57:07;102137.53;;;6.72;95.56
54022;BME280;39936;51.058;17.220;2023-05-14T03:00:53;102141.62;;;6.83;94.76
54022;BME280;39936;51.058;17.220;2023-05-14T03:04:31;102136.73;;;6.93;93.99
54022;BME280;39936;51.058;17.220;2023-05-14T03:08:22;102124.18;;;6.91;93.34
54022;BME280;39936;51.058;17.220;2023-05-14T03:11:57;102141.34;;;6.90;93.05
54022;BME280;39936;51.058;17.220;2023-05-14T03:15:48;102136.67;;;6.95;92.89
54022;BME280;39936;51.058;17.220;2023-05-14T03:20:02;102137.24;;;7.16;93.08
54022;BME280;39936;51.058;17.220;2023-05-14T03:23:37;102131.97;;;7.74;94.61
54022;BME280;39936;51.058;17.220;2023-05-14T03:31:17;102132.40;;;8.67;85.56
54022;BME280;39936;51.058;17.220;2023-05-14T03:34:53;102137.89;;;8.46;84.04
54022;BME280;39936;51.058;17.220;2023-05-14T03:38:31;102128.09;;;8.74;84.80
54022;BME280;39936;51.058;17.220;2023-05-14T03:42:16;102125.77;;;9.75;84.36
54022;BME280;39936;51.058;17.220;2023-05-14T03:45:34;102118.68;;;10.79;83.39
54022;BME280;39936;51.058;17.220;2023-05-14T03:49:56;102108.86;;;11.56;73.62
54022;BME280;39936;51.058;17.220;2023-05-14T03:53:23;102108.61;;;11.74;73.06
54022;BME280;39936;51.058;17.220;2023-05-14T03:57:23;102104.13;;;12.57;70.58
54022;BME280;39936;51.058;17.220;2023-05-14T04:01:01;102093.50;;;13.50;66.10
54022;BME280;39936;51.058;17.220;2023-05-14T04:05:07;102092.18;;;13.23;61.77
54022;BME280;39936;51.058;17.220;2023-05-14T04:08:41;102094.18;;;12.94;63.28
54022;BME280;39936;51.058;17.220;2023-05-14T04:12:17;102082.43;;;13.54;64.42
54022;BME280;39936;51.058;17.220;2023-05-14T04:16:16;102074.93;;;14.26;61.46
54022;BME280;39936;51.058;17.220;2023-05-14T04:20:06;102067.44;;;14.41;57.26
54022;BME280;39936;51.058;17.220;2023-05-14T04:23:58;102075.57;;;14.01;58.09
54022;BME280;39936;51.058;17.220;2023-05-14T04:27:49;102074.59;;;14.58;60.23
54022;BME280;39936;51.058;17.220;2023-05-14T04:31:22;102081.28;;;14.05;57.53
54022;BME280;39936;51.058;17.220;2023-05-14T04:34:56;102089.98;;;12.85;61.33
54022;BME280;39936;51.058;17.220;2023-05-14T04:38:31;102096.86;;;12.06;65.21
54022;BME280;39936;51.058;17.220;2023-05-14T04:42:00;102094.95;;;11.31;69.60
54022;BME280;39936;51.058;17.220;2023-05-14T04:45:35;102095.48;;;11.03;71.43
54022;BME280;39936;51.058;17.220;2023-05-14T04:48:55;102081.77;;;10.96;73.03
54022;BME280;39936;51.058;17.220;2023-05-14T05:00:06;102057.89;;;11.28;74.17
54022;BME280;39936;51.058;17.220;2023-05-14T05:07:36;102075.34;;;11.42;73.10
54022;BME280;39936;51.058;17.220;2023-05-14T05:11:16;102074.50;;;11.41;73.69
54022;BME280;39936;51.058;17.220;2023-05-14T05:15:08;102063.54;;;11.58;73.57
54022;BME280;39936;51.058;17.220;2023-05-14T05:18:59;102059.46;;;11.55;71.52
54022;BME280;39936;51.058;17.220;2023-05-14T05:22:14;102034.95;;;11.33;70.92
54022;BME280;39936;51.058;17.220;2023-05-14T05:25:31;102038.21;;;11.06;72.61
54022;BME280;39936;51.058;17.220;2023-05-14T05:29:18;102056.44;;;11.44;72.86
54022;BME280;39936;51.058;17.220;2023-05-14T05:33:06;102058.33;;;11.78;71.74
54022;BME280;39936;51.058;17.220;2023-05-14T05:36:39;102061.95;;;11.89;70.68
54022;BME280;39936;51.058;17.220;2023-05-14T05:40:17;102055.44;;;12.19;70.06
54022;BME280;39936;51.058;17.220;2023-05-14T05:44:05;102054.30;;;12.10;69.44
54022;BME280;39936;51.058;17.220;2023-05-14T05:47:42;102050.16;;;12.40;70.55
54022;BME280;39936;51.058;17.220;2023-05-14T05:51:46;102041.97;;;12.62;69.31
54022;BME280;39936;51.058;17.220;2023-05-14T05:55:22;102016.65;;;12.51;67.91
54022;BME280;39936;51.058;17.220;2023-05-14T05:59:26;102042.84;;;12.98;68.57
54022;BME280;39936;51.058;17.220;2023-05-14T06:03:17;102039.62;;;13.46;67.25
54022;BME280;39936;51.058;17.220;2023-05-14T06:06:33;102031.55;;;13.68;64.15
54022;BME280;39936;51.058;17.220;2023-05-14T06:09:50;102037.80;;;13.30;64.57
54022;BME280;39936;51.058;17.220;2023-05-14T06:13:28;102041.94;;;13.21;66.39
54022;BME280;39936;51.058;17.220;2023-05-14T06:17:19;102039.31;;;13.44;65.61
54022;BME280;39936;51.058;17.220;2023-05-14T06:20:55;102040.67;;;13.79;65.73
54022;BME280;39936;51.058;17.220;2023-05-14T06:24:35;102033.22;;;14.29;65.28
54022;BME280;39936;51.058;17.220;2023-05-14T06:28:27;102022.34;;;15.01;63.62
54022;BME280;39936;51.058;17.220;2023-05-14T06:32:15;102016.64;;;15.34;61.99
54022;BME280;39936;51.058;17.220;2023-05-14T06:35:53;102011.89;;;15.16;57.92
54022;BME280;39936;51.058;17.220;2023-05-14T06:39:22;102011.92;;;15.46;61.33
54022;BME280;39936;51.058;17.220;2023-05-14T06:42:48;102010.01;;;15.73;57.00
54022;BME280;39936;51.058;17.220;2023-05-14T06:50:57;102008.95;;;15.72;54.67
54022;BME280;39936;51.058;17.220;2023-05-14T06:54:14;101999.84;;;15.87;54.04
54022;BME280;39936;51.058;17.220;2023-05-14T06:58:19;101993.04;;;15.66;55.28
54022;BME280;39936;51.058;17.220;2023-05-14T07:01:56;101989.42;;;15.73;54.33
54022;BME280;39936;51.058;17.220;2023-05-14T07:06:08;101983.69;;;15.83;54.74
54022;BME280;39936;51.058;17.220;2023-05-14T07:14:07;101969.54;;;16.05;54.13
54022;BME280;39936;51.058;17.220;2023-05-14T07:17:23;101967.80;;;16.01;53.50
54022;BME280;39936;51.058;17.220;2023-05-14T07:21:47;101961.65;;;16.38;52.53
54022;BME280;39936;51.058;17.220;2023-05-14T07:25:48;101959.54;;;16.61;51.23
54022;BME280;39936;51.058;17.220;2023-05-14T07:29:22;101922.34;;;16.62;50.40
54022;BME280;39936;51.058;17.220;2023-05-14T07:36:43;101954.69;;;16.19;51.14
54022;BME280;39936;51.058;17.220;2023-05-14T07:40:11;101950.28;;;16.37;51.43
54022;BME280;39936;51.058;17.220;2023-05-14T07:43:32;101949.27;;;16.68;50.03
54022;BME280;39936;51.058;17.220;2023-05-14T07:46:48;101952.26;;;16.51;49.60
54022;BME280;39936;51.058;17.220;2023-05-14T07:50:05;101942.01;;;16.61;49.79
54022;BME280;39936;51.058;17.220;2023-05-14T07:53:46;101940.07;;;16.81;49.35
54022;BME280;39936;51.058;17.220;2023-05-14T07:58:12;101937.35;;;17.09;48.74
54022;BME280;39936;51.058;17.220;2023-05-14T08:02:36;101934.18;;;17.16;49.43
54022;BME280;39936;51.058;17.220;2023-05-14T08:06:23;101941.70;;;16.56;48.11
54022;BME280;39936;51.058;17.220;2023-05-14T08:10:01;101937.09;;;16.41;49.08
54022;BME280;39936;51.058;17.220;2023-05-14T08:13:19;101930.48;;;16.71;49.75
54022;BME280;39936;51.058;17.220;2023-05-14T08:17:23;101927.72;;;16.73;49.81
54022;BME280;39936;51.058;17.220;2023-05-14T08:21:03;101931.05;;;16.89;49.12
54022;BME280;39936;51.058;17.220;2023-05-14T08:24:38;101929.42;;;16.95;49.43
54022;BME280;39936;51.058;17.220;2023-05-14T08:28:52;101924.63;;;17.15;49.82
54022;BME280;39936;51.058;17.220;2023-05-14T08:32:53;101891.87;;;17.41;47.80
54022;BME280;39936;51.058;17.220;2023-05-14T08:36:50;101913.02;;;17.70;48.11
54022;BME280;39936;51.058;17.220;2023-05-14T08:40:40;101905.84;;;17.92;47.45
54022;BME280;39936;51.058;17.220;2023-05-14T08:47:50;101889.08;;;17.73;48.61
54022;BME280;39936;51.058;17.220;2023-05-14T08:51:35;101893.60;;;17.94;46.98
54022;BME280;39936;51.058;17.220;2023-05-14T08:55:55;101887.01;;;18.20;47.74
54022;BME280;39936;51.058;17.220;2023-05-14T09:03:23;101878.18;;;18.11;45.98
54022;BME280;39936;51.058;17.220;2023-05-14T09:07:24;101865.55;;;18.19;44.71
54022;BME280;39936;51.058;17.220;2023-05-14T09:11:06;101866.85;;;18.61;46.95
54022;BME280;39936;51.058;17.220;2023-05-14T09:15:15;101874.66;;;17.72;44.51
54022;BME280;39936;51.058;17.220;2023-05-14T09:18:51;101870.19;;;17.28;46.06
54022;BME280;39936;51.058;17.220;2023-05-14T09:22:20;101865.41;;;17.43;46.16
54022;BME280;39936;51.058;17.220;2023-05-14T09:25:57;101856.01;;;17.64;45.90
54022;BME280;39936;51.058;17.220;2023-05-14T09:29:39;101860.06;;;17.46;45.66
54022;BME280;39936;51.058;17.220;2023-05-14T09:37:57;101838.68;;;17.62;45.31
54022;BME280;39936;51.058;17.220;2023-05-14T09:41:30;101844.94;;;17.38;45.56
54022;BME280;39936;51.058;17.220;2023-05-14T09:45:17;101836.48;;;17.41;47.27
54022;BME280;39936;51.058;17.220;2023-05-14T09:48:45;101823.53;;;17.76;48.01
54022;BME280;39936;51.058;17.220;2023-05-14T09:52:11;101814.81;;;18.28;46.77
54022;BME280;39936;51.058;17.220;2023-05-14T09:55:29;101814.74;;;18.67;45.95
54022;BME280;39936;51.058;17.220;2023-05-14T10:02:57;101783.80;;;18.99;48.83
54022;BME280;39936;51.058;17.220;2023-05-14T10:06:52;101794.84;;;19.46;43.71
54022;BME280;39936;51.058;17.220;2023-05-14T10:10:52;101779.70;;;19.58;47.92
54022;BME280;39936;51.058;17.220;2023-05-14T10:18:52;101789.07;;;19.84;42.88
54022;BME280;39936;51.058;17.220;2023-05-14T10:22:50;101783.00;;;19.88;43.89
54022;BME280;39936;51.058;17.220;2023-05-14T10:27:14;101777.67;;;20.23;45.58
54022;BME280;39936;51.058;17.220;2023-05-14T10:30:31;101749.43;;;20.36;45.07
54022;BME280;39936;51.058;17.220;2023-05-14T10:37:56;101755.43;;;20.36;43.33
54022;BME280;39936;51.058;17.220;2023-05-14T10:41:47;101756.05;;;19.74;40.61
54022;BME280;39936;51.058;17.220;2023-05-14T10:45:28;101753.09;;;19.73;43.08
54022;BME280;39936;51.058;17.220;2023-05-14T10:49:05;101755.68;;;19.29;42.83
54022;BME280;39936;51.058;17.220;2023-05-14T10:52:45;101759.36;;;18.31;43.87
54022;BME280;39936;51.058;17.220;2023-05-14T10:56:20;101762.31;;;18.02;44.57
54022;BME280;39936;51.058;17.220;2023-05-14T11:04:23;101750.64;;;18.30;44.01
54022;BME280;39936;51.058;17.220;2023-05-14T11:08:02;101742.95;;;18.56;43.64
54022;BME280;39936;51.058;17.220;2023-05-14T11:11:40;101731.23;;;19.13;41.88
54022;BME280;39936;51.058;17.220;2023-05-14T11:15:30;101716.46;;;18.54;42.68
54022;BME280;39936;51.058;17.220;2023-05-14T11:19:03;101737.45;;;18.57;43.38
54022;BME280;39936;51.058;17.220;2023-05-14T11:22:51;101730.63;;;18.79;43.30
54022;BME280;39936;51.058;17.220;2023-05-14T11:26:38;101721.57;;;19.28;42.45
54022;BME280;39936;51.058;17.220;2023-05-14T11:29:54;101715.96;;;19.66;41.83
54022;BME280;39936;51.058;17.220;2023-05-14T11:33:53;101708.24;;;20.04;43.43
54022;BME280;39936;51.058;17.220;2023-05-14T11:37:49;101709.63;;;19.86;42.11
54022;BME280;39936;51.058;17.220;2023-05-14T11:41:49;101705.98;;;19.55;42.18
54022;BME280;39936;51.058;17.220;2023-05-14T11:45:55;101698.09;;;19.41;42.27
54022;BME280;39936;51.058;17.220;2023-05-14T11:49:30;101674.11;;;19.58;41.98
54022;BME280;39936;51.058;17.220;2023-05-14T11:53:09;101687.61;;;20.32;43.24
54022;BME280;39936;51.058;17.220;2023-05-14T11:56:27;101678.47;;;20.71;41.33
54022;BME280;39936;51.058;17.220;2023-05-14T12:00:10;101673.17;;;21.14;42.17
54022;BME280;39936;51.058;17.220;2023-05-14T12:04:00;101671.15;;;21.67;41.17
54022;BME280;39936;51.058;17.220;2023-05-14T12:07:29;101664.69;;;21.70;40.79
54022;BME280;39936;51.058;17.220;2023-05-14T12:10:46;101669.95;;;21.46;41.41
54022;BME280;39936;51.058;17.220;2023-05-14T12:14:10;101664.77;;;21.40;40.97
54022;BME280;39936;51.058;17.220;2023-05-14T12:17:55;101667.37;;;21.47;40.24
54022;BME280;39936;51.058;17.220;2023-05-14T12:21:11;101660.60;;;21.53;40.21
54022;BME280;39936;51.058;17.220;2023-05-14T12:24:26;101651.58;;;21.88;39.27
54022;BME280;39936;51.058;17.220;2023-05-14T12:28:13;101652.66;;;21.75;40.63
54022;BME280;39936;51.058;17.220;2023-05-14T12:31:30;101657.51;;;21.05;41.11
54022;BME280;39936;51.058;17.220;2023-05-14T12:34:50;101654.34;;;20.74;41.50
54022;BME280;39936;51.058;17.220;2023-05-14T12:38:28;101658.35;;;20.61;40.68
54022;BME280;39936;51.058;17.220;2023-05-14T12:42:04;101659.29;;;20.15;42.22
54022;BME280;39936;51.058;17.220;2023-05-14T12:45:38;101656.73;;;20.19;43.46
54022;BME280;39936;51.058;17.220;2023-05-14T12:49:13;101628.47;;;19.90;41.08
54022;BME280;39936;51.058;17.220;2023-05-14T12:53:03;101654.18;;;20.03;41.84
54022;BME280;39936;51.058;17.220;2023-05-14T12:56:22;101656.95;;;20.23;41.32
54022;BME280;39936;51.058;17.220;2023-05-14T13:00:01;101648.48;;;20.76;42.01
54022;BME280;39936;51.058;17.220;2023-05-14T13:03:56;101645.12;;;20.82;41.75
54022;BME280;39936;51.058;17.220;2023-05-14T13:07:46;101603.84;;;20.93;42.12
54022;BME280;39936;51.058;17.220;2023-05-14T13:11:20;101631.94;;;21.45;42.48
54022;BME280;39936;51.058;17.220;2023-05-14T13:14:56;101626.05;;;21.51;40.98
54022;BME280;39936;51.058;17.220;2023-05-14T13:18:13;101625.22;;;21.55;41.29
54022;BME280;39936;51.058;17.220;2023-05-14T13:22:02;101608.82;;;21.45;40.47
54022;BME280;39936;51.058;17.220;2023-05-14T13:25:55;101595.67;;;21.23;42.33
54022;BME280;39936;51.058;17.220;2023-05-14T13:30:07;101598.89;;;20.81;42.56
54022;BME280;39936;51.058;17.220;2023-05-14T13:33:41;101590.13;;;20.69;42.58
54022;BME280;39936;51.058;17.220;2023-05-14T13:37:44;101596.93;;;20.50;43.11
54022;BME280;39936;51.058;17.220;2023-05-14T13:41:33;101619.01;;;20.33;43.94
54022;BME280;39936;51.058;17.220;2023-05-14T13:45:14;101626.73;;;20.32;44.56
54022;BME280;39936;51.058;17.220;2023-05-14T13:48:30;101615.94;;;20.79;43.76
54022;BME280;39936;51.058;17.220;2023-05-14T13:52:12;101612.27;;;20.94;41.78
54022;BME280;39936;51.058;17.220;2023-05-14T13:55:29;101610.05;;;20.86;42.58
54022;BME280;39936;51.058;17.220;2023-05-14T13:58:59;101577.16;;;20.77;42.12
54022;BME280;39936;51.058;17.220;2023-05-14T14:02:17;101602.77;;;21.09;42.05
54022;BME280;39936;51.058;17.220;2023-05-14T14:05:57;101598.98;;;21.12;38.80
54022;BME280;39936;51.058;17.220;2023-05-14T14:09:41;101599.01;;;20.74;40.52
54022;BME280;39936;51.058;17.220;2023-05-14T14:13:18;101573.29;;;20.44;42.17
54022;BME280;39936;51.058;17.220;2023-05-14T14:17:08;101593.66;;;20.81;41.31
54022;BME280;39936;51.058;17.220;2023-05-14T14:20:57;101593.77;;;21.03;42.32
54022;BME280;39936;51.058;17.220;2023-05-14T14:24:33;101565.69;;;20.62;42.64
54022;BME280;39936;51.058;17.220;2023-05-14T14:28:08;101561.43;;;20.44;42.81
54022;BME280;39936;51.058;17.220;2023-05-14T14:31:38;101581.46;;;20.55;43.69
54022;BME280;39936;51.058;17.220;2023-05-14T14:39:11;101565.18;;;20.69;42.32
54022;BME280;39936;51.058;17.220;2023-05-14T14:42:58;101571.54;;;20.33;44.09
54022;BME280;39936;51.058;17.220;2023-05-14T14:46:25;101573.55;;;20.25;45.13
54022;BME280;39936;51.058;17.220;2023-05-14T14:50:48;101569.09;;;20.34;44.32
54022;BME280;39936;51.058;17.220;2023-05-14T14:54:27;101555.72;;;20.67;44.12
54022;BME280;39936;51.058;17.220;2023-05-14T14:58:03;101557.18;;;20.77;43.62
54022;BME280;39936;51.058;17.220;2023-05-14T15:01:19;101533.79;;;20.60;44.72
54022;BME280;39936;51.058;17.220;2023-05-14T15:05:16;101555.45;;;20.51;44.51
54022;BME280;39936;51.058;17.220;2023-05-14T15:08:33;101552.63;;;20.22;44.65
54022;BME280;39936;51.058;17.220;2023-05-14T15:14:01;101550.90;;;20.23;45.09
54022;BME280;39936;51.058;17.220;2023-05-14T15:17:33;101506.36;;;20.48;43.64
54022;BME280;39936;51.058;17.220;2023-05-14T15:21:08;101509.41;;;20.68;43.91
54022;BME280;39936;51.058;17.220;2023-05-14T15:24:36;101533.23;;;20.84;43.25
54022;BME280;39936;51.058;17.220;2023-05-14T15:27:50;101530.20;;;20.69;44.70
54022;BME280;39936;51.058;17.220;2023-05-14T15:31:24;101524.75;;;20.89;44.16
54022;BME280;39936;51.058;17.220;2023-05-14T15:34:52;101517.70;;;20.80;44.68
54022;BME280;39936;51.058;17.220;2023-05-14T15:38:27;101518.37;;;20.54;44.22
54022;BME280;39936;51.058;17.220;2023-05-14T15:42:13;101496.95;;;20.50;44.84
54022;BME280;39936;51.058;17.220;2023-05-14T15:45:29;101501.74;;;20.39;44.76
54022;BME280;39936;51.058;17.220;2023-05-14T15:49:33;101500.27;;;20.26;44.91
54022;BME280;39936;51.058;17.220;2023-05-14T15:53:08;101498.35;;;20.29;45.42
54022;BME280;39936;51.058;17.220;2023-05-14T15:56:57;101492.26;;;19.92;45.50
54022;BME280;39936;51.058;17.220;2023-05-14T16:01:24;101502.57;;;20.05;45.83
54022;BME280;39936;51.058;17.220;2023-05-14T16:05:47;101479.02;;;19.95;44.80
54022;BME280;39936;51.058;17.220;2023-05-14T16:09:15;101466.23;;;19.88;45.76
54022;BME280;39936;51.058;17.220;2023-05-14T16:13:28;101489.16;;;19.95;46.27
54022;BME280;39936;51.058;17.220;2023-05-14T16:17:07;101492.20;;;19.84;47.00
54022;BME280;39936;51.058;17.220;2023-05-14T16:20:35;101482.69;;;19.52;46.99
54022;BME280;39936;51.058;17.220;2023-05-14T16:23:50;101483.01;;;19.23;47.64
54022;BME280;39936;51.058;17.220;2023-05-14T16:27:17;101477.12;;;18.97;48.13
54022;BME280;39936;51.058;17.220;2023-05-14T16:30:34;101459.64;;;18.65;49.06
54022;BME280;39936;51.058;17.220;2023-05-14T16:33:48;101489.40;;;18.68;49.63
54022;BME280;39936;51.058;17.220;2023-05-14T16:37:23;101491.73;;;18.62;49.17
54022;BME280;39936;51.058;17.220;2023-05-14T16:41:24;101489.77;;;18.58;49.15
54022;BME280;39936;51.058;17.220;2023-05-14T16:45:12;101489.10;;;18.51;49.56
54022;BME280;39936;51.058;17.220;2023-05-14T16:48:31;101455.92;;;18.24;49.74
54022;BME280;39936;51.058;17.220;2023-05-14T16:51:45;101487.58;;;18.39;50.21
54022;BME280;39936;51.058;17.220;2023-05-14T16:59:32;101495.90;;;18.28;49.88
54022;BME280;39936;51.058;17.220;2023-05-14T17:02:49;101494.05;;;18.24;49.86
54022;BME280;39936;51.058;17.220;2023-05-14T17:06:11;101469.62;;;18.09;49.85
54022;BME280;39936;51.058;17.220;2023-05-14T17:10:29;101464.00;;;18.00;50.38
54022;BME280;39936;51.058;17.220;2023-05-14T17:14:19;101477.48;;;18.09;51.79
54022;BME280;39936;51.058;17.220;2023-05-14T17:18:08;101478.57;;;18.03;52.82
54022;BME280;39936;51.058;17.220;2023-05-14T17:21:35;101484.46;;;17.94;53.09
54022;BME280;39936;51.058;17.220;2023-05-14T17:24:55;101485.05;;;17.84;53.74
54022;BME280;39936;51.058;17.220;2023-05-14T17:28:17;101484.09;;;17.74;54.05
54022;BME280;39936;51.058;17.220;2023-05-14T17:32:12;101485.73;;;17.65;53.93
54022;BME280;39936;51.058;17.220;2023-05-14T17:36:11;101483.96;;;17.59;54.52
54022;BME280;39936;51.058;17.220;2023-05-14T17:39:29;101483.18;;;17.56;54.42
54022;BME280;39936;51.058;17.220;2023-05-14T17:43:16;101479.89;;;17.52;54.76
54022;BME280;39936;51.058;17.220;2023-05-14T17:47:04;101478.29;;;17.47;55.76
54022;BME280;39936;51.058;17.220;2023-05-14T17:50:51;101450.62;;;17.24;57.31
54022;BME280;39936;51.058;17.220;2023-05-14T17:54:32;101476.61;;;17.24;58.15
54022;BME280;39936;51.058;17.220;2023-05-14T18:02:40;101472.81;;;16.91;59.09
54022;BME280;39936;51.058;17.220;2023-05-14T18:05:55;101475.23;;;16.75;59.56
54022;BME280;39936;51.058;17.220;2023-05-14T18:09:42;101453.53;;;16.52;59.07
54022;BME280;39936;51.058;17.220;2023-05-14T18:13:18;101467.98;;;16.55;58.59
54022;BME280;39936;51.058;17.220;2023-05-14T18:17:24;101466.09;;;16.51;59.02
54022;BME280;39936;51.058;17.220;2023-05-14T18:20:44;101461.21;;;16.42;59.14
54022;BME280;39936;51.058;17.220;2023-05-14T18:24:22;101457.45;;;16.37;58.79
54022;BME280;39936;51.058;17.220;2023-05-14T18:27:39;101426.77;;;16.17;59.54
54022;BME280;39936;51.058;17.220;2023-05-14T18:31:20;101458.59;;;16.39;59.71
54022;BME280;39936;51.058;17.220;2023-05-14T18:34:36;101448.89;;;16.35;59.81
54022;BME280;39936;51.058;17.220;2023-05-14T18:38:18;101446.35;;;16.34;59.43
54022;BME280;39936;51.058;17.220;2023-05-14T18:42:19;101420.16;;;16.06;60.77
54022;BME280;39936;51.058;17.220;2023-05-14T18:45:39;101451.88;;;16.11;60.64
54022;BME280;39936;51.058;17.220;2023-05-14T18:48:55;101454.63;;;16.09;61.22
54022;BME280;39936;51.058;17.220;2023-05-14T18:54:44;101459.77;;;15.94;62.29
54022;BME280;39936;51.058;17.220;2023-05-14T18:58:18;101455.27;;;15.97;60.64
54022;BME280;39936;51.058;17.220;2023-05-14T19:01:58;101454.59;;;16.02;60.57
54022;BME280;39936;51.058;17.220;2023-05-14T19:05:34;101440.80;;;15.87;63.83
54022;BME280;39936;51.058;17.220;2023-05-14T19:09:40;101452.68;;;15.88;62.46
54022;BME280;39936;51.058;17.220;2023-05-14T19:17:19;101468.52;;;15.97;63.39
54022;BME280;39936;51.058;17.220;2023-05-14T19:20:33;101485.40;;;16.04;65.41
54022;BME280;39936;51.058;17.220;2023-05-14T19:23:50;101476.18;;;15.78;66.75
54022;BME280;39936;51.058;17.220;2023-05-14T19:27:18;101521.37;;;15.64;72.33
54022;BME280;39936;51.058;17.220;2023-05-14T19:31:15;101527.63;;;14.90;78.41
54022;BME280;39936;51.058;17.220;2023-05-14T19:35:17;101481.70;;;14.33;82.51
54022;BME280;39936;51.058;17.220;2023-05-14T19:42:56;101404.20;;;14.08;83.71
54022;BME280;39936;51.058;17.220;2023-05-14T19:51:23;101421.23;;;13.77;87.61
54022;BME280;39936;51.058;17.220;2023-05-14T19:55:24;101418.91;;;13.63;89.70
54022;BME280;39936;51.058;17.220;2023-05-14T20:02:28;101421.52;;;13.44;94.00
54022;BME280;39936;51.058;17.220;2023-05-14T20:06:22;101424.76;;;13.43;98.47
54022;BME280;39936;51.058;17.220;2023-05-14T20:09:56;101412.30;;;13.12;100.00
54022;BME280;39936;51.058;17.220;2023-05-14T20:13:10;101434.68;;;13.33;100.00
54022;BME280;39936;51.058;17.220;2023-05-14T20:16:47;101432.85;;;13.31;100.00
54022;BME280;39936;51.058;17.220;2023-05-14T20:20:21;101408.52;;;13.34;99.09
54022;BME280;39936;51.058;17.220;2023-05-14T20:24:09;101386.99;;;13.29;97.24
54022;BME280;39936;51.058;17.220;2023-05-14T20:29:13;101397.91;;;13.46;96.48
54022;BME280;39936;51.058;17.220;2023-05-14T20:32:47;101393.30;;;13.41;98.48
54022;BME280;39936;51.058;17.220;2023-05-14T20:36:30;101407.05;;;13.33;100.00
54022;BME280;39936;51.058;17.220;2023-05-14T20:43:20;101406.77;;;13.31;100.00
54022;BME280;39936;51.058;17.220;2023-05-14T20:50:45;101397.53;;;13.40;100.00
54022;BME280;39936;51.058;17.220;2023-05-14T20:55:06;101360.33;;;13.11;100.00
54022;BME280;39936;51.058;17.220;2023-05-14T20:58:46;101376.67;;;13.16;100.00
54022;BME280;39936;51.058;17.220;2023-05-14T21:06:47;101425.67;;;12.89;100.00